Terminal Aerodrome Forecast
Issued by NWS

Current Version | Previous Version | Graphics & Text | Print | Product List | Glossary On
Versions: 1 2 3 4 5 6 7 8 9 10 11 12 13 14 15 16 17 18 19 20 21 22
000
FTUS41 KRNK 170025 AAA
TAFLWB
TAF AMD
KLWB 170025Z 1700/1724 00000KT 2SM BR SCT004 OVC050
      TEMPO 1700/1703 3/4SM BR OVC004
     FM170300 00000KT 1/2SM FG OVC005
     FM170900 00000KT 3SM -SHRA BR OVC008
     FM171300 VRB03KT 4SM SHRA BR OVC008 WS020/23035KT
     FM171700 22007KT 6SM -SHRA BR OVC015=

USA.gov is the U.S. government's official web portal to all federal, state and local government web resources and services.